Time;durP1;ratioP1;P1;durP2;ratioP2;P2;SDS_P1;SDS_P2;PMS_P1;PMS_P2;Temp;Humidity;BMP_temperature;BMP_pressure;BME280_temperature;BME280_humidity;BME280_pressure;Samples;Min_cycle;Max_cycle;Signal;HPM_P1;HPM_P2
2022/06/03 00:02:53;;;;;;;44.40;13.30;;;24.70;92.90;;;;;;5131428;28;20054;-71
2022/06/03 00:06:24;;;;;;;31.38;13.63;;;24.70;92.70;;;;;;5131257;28;20066;-71
2022/06/03 00:10:19;;;;;;;33.65;12.30;;;24.70;92.70;;;;;;5131501;28;20398;-71
2022/06/03 00:13:58;;;;;;;31.48;12.73;;;24.50;92.90;;;;;;5121390;28;20042;-71
2022/06/03 00:17:26;;;;;;;24.67;12.23;;;24.50;93.00;;;;;;5134874;27;20042;-71
2022/06/03 00:20:33;;;;;;;27.30;13.00;;;24.40;93.30;;;;;;5132567;28;20054;-71
2022/06/03 00:24:03;;;;;;;26.42;12.88;;;24.40;93.40;;;;;;5131103;28;20657;-71
2022/06/03 00:27:07;;;;;;;28.48;13.70;;;24.40;93.50;;;;;;5131715;28;20042;-71
2022/06/03 00:30:29;;;;;;;27.85;12.38;;;24.30;93.90;;;;;;5119726;28;20513;-71
2022/06/03 00:33:59;;;;;;;25.13;12.60;;;24.30;94.20;;;;;;5132138;28;20034;-71
2022/06/03 00:37:16;;;;;;;22.05;12.43;;;24.40;93.90;;;;;;5132398;28;20042;-71
2022/06/03 00:40:29;;;;;;;25.02;13.18;;;24.40;93.70;;;;;;5131350;28;20529;-71
2022/06/03 00:44:07;;;;;;;30.77;13.02;;;24.30;94.00;;;;;;5131701;28;20058;-71
2022/06/03 00:47:39;;;;;;;36.58;13.63;;;24.30;94.10;;;;;;5133435;28;20109;-71
2022/06/03 00:50:49;;;;;;;41.08;13.95;;;24.40;93.90;;;;;;5130924;28;20038;-71
2022/06/03 00:54:11;;;;;;;29.83;13.35;;;24.50;93.60;;;;;;5131066;28;20034;-71
2022/06/03 00:57:21;;;;;;;31.73;12.73;;;24.60;93.60;;;;;;5131153;28;20066;-71
2022/06/03 01:00:30;;;;;;;29.42;13.93;;;24.60;93.60;;;;;;5131173;28;20042;-71
2022/06/03 01:03:56;;;;;;;31.00;14.10;;;24.50;93.50;;;;;;5133149;27;20058;-71
2022/06/03 01:07:30;;;;;;;28.80;14.45;;;24.40;93.60;;;;;;5135701;27;20053;-71
2022/06/03 01:10:56;;;;;;;32.47;13.77;;;24.40;93.70;;;;;;5134720;27;20050;-71
2022/06/03 01:14:25;;;;;;;26.42;12.43;;;24.20;93.80;;;;;;5135348;27;20061;-71
2022/06/03 01:17:50;;;;;;;22.15;11.50;;;24.10;93.70;;;;;;5135428;27;20042;-71
2022/06/03 01:21:18;;;;;;;29.40;12.65;;;24.10;93.60;;;;;;5135505;27;20058;-71
2022/06/03 01:24:32;;;;;;;21.33;12.25;;;24.10;93.70;;;;;;5122437;27;20403;-71
2022/06/03 01:27:45;;;;;;;28.27;12.45;;;24.00;93.60;;;;;;5135217;27;20037;-71
2022/06/03 01:31:08;;;;;;;23.27;12.70;;;24.00;93.30;;;;;;5135008;27;20046;-71
2022/06/03 01:34:31;;;;;;;25.25;13.80;;;23.80;93.70;;;;;;5134626;27;20039;-71
2022/06/03 01:37:36;;;;;;;27.98;13.07;;;23.90;93.70;;;;;;5135185;27;20050;-71
2022/06/03 01:41:13;;;;;;;25.42;13.60;;;23.80;93.70;;;;;;5133800;27;20050;-71
2022/06/03 01:44:46;;;;;;;30.90;14.80;;;23.70;94.10;;;;;;5134251;27;20058;-71
2022/06/03 01:48:02;;;;;;;36.22;14.07;;;23.60;93.90;;;;;;5135260;27;20045;-71
2022/06/03 01:51:36;;;;;;;25.00;13.05;;;23.50;94.00;;;;;;5134041;27;20493;-71
2022/06/03 01:55:18;;;;;;;25.25;11.90;;;23.20;94.30;;;;;;5095974;27;20501;-71
2022/06/03 01:58:29;;;;;;;17.58;10.95;;;23.30;93.80;;;;;;5133830;27;20042;-71
2022/06/03 02:02:04;;;;;;;20.30;11.68;;;23.20;93.60;;;;;;5134270;27;20046;-71
2022/06/03 02:05:20;;;;;;;21.30;10.63;;;23.20;93.30;;;;;;5134279;27;20050;-71
2022/06/03 02:08:45;;;;;;;26.45;10.38;;;23.10;93.40;;;;;;5134242;27;20038;-71
2022/06/03 02:12:25;;;;;;;24.02;10.57;;;23.20;92.80;;;;;;5121279;27;20050;-71
2022/06/03 02:15:47;;;;;;;21.65;9.15;;;23.20;92.50;;;;;;5127817;27;20034;-71
2022/06/03 02:19:06;;;;;;;21.63;8.90;;;23.20;92.60;;;;;;5132960;27;20046;-71
2022/06/03 02:22:31;;;;;;;19.08;9.30;;;23.30;92.40;;;;;;5133853;27;20034;-71
2022/06/03 02:25:53;;;;;;;18.45;8.68;;;23.30;92.10;;;;;;5132573;27;20054;-71
2022/06/03 02:33:32;;;;;;;23.13;9.15;;;23.50;91.70;;;;;;5127373;27;20042;-71
2022/06/03 02:37:14;;;;;;;14.63;8.05;;;23.60;90.90;;;;;;5108955;27;20034;-71
2022/06/03 02:40:21;;;;;;;;;;;23.70;90.90;;;;;;5133127;27;20057;-71
2022/06/03 02:43:41;;;;;;;26.77;8.77;;;23.70;90.70;;;;;;5133070;27;19922;-71
2022/06/03 02:46:49;;;;;;;18.40;8.52;;;23.80;90.70;;;;;;5133464;27;20080;-71
2022/06/03 02:49:53;;;;;;;22.58;9.63;;;23.80;90.40;;;;;;5132739;27;20112;-71
2022/06/03 02:53:21;;;;;;;18.98;9.73;;;23.70;90.90;;;;;;5133167;27;20050;-71
2022/06/03 02:56:41;;;;;;;21.20;9.50;;;23.60;91.20;;;;;;5132288;27;20042;-71
2022/06/03 03:00:04;;;;;;;20.83;11.10;;;23.60;91.30;;;;;;5120385;27;20038;-71
2022/06/03 03:03:57;;;;;;;20.38;10.05;;;23.50;91.40;;;;;;5120673;27;20516;-71
2022/06/03 03:07:26;;;;;;;24.13;10.48;;;23.40;91.50;;;;;;5132197;27;20046;-71
2022/06/03 03:10:47;;;;;;;23.73;10.25;;;23.40;91.60;;;;;;5132972;27;20038;-71
2022/06/03 03:14:13;;;;;;;18.17;9.75;;;23.30;91.50;;;;;;5131815;27;20046;-71
2022/06/03 03:17:42;;;;;;;18.85;8.88;;;23.10;91.70;;;;;;5120019;27;20046;-71
2022/06/03 03:21:03;;;;;;;17.95;8.77;;;23.00;91.70;;;;;;5131572;27;20042;-71
2022/06/03 03:24:34;;;;;;;18.85;9.05;;;23.00;91.10;;;;;;5132316;27;20398;-71
2022/06/03 03:28:00;;;;;;;17.35;9.73;;;23.00;91.20;;;;;;5131172;27;20042;-71
2022/06/03 03:31:23;;;;;;;27.00;11.02;;;22.90;91.60;;;;;;5132335;27;20042;-71
2022/06/03 03:34:33;;;;;;;27.35;10.73;;;22.80;92.00;;;;;;5132520;27;20050;-71
2022/06/03 03:37:49;;;;;;;27.30;11.85;;;22.80;92.30;;;;;;5132256;27;20046;-71
2022/06/03 03:41:18;;;;;;;23.30;11.25;;;22.80;92.10;;;;;;5131373;27;20034;-71
2022/06/03 03:44:40;;;;;;;56.67;12.50;;;22.80;92.40;;;;;;5131873;27;20402;-71
2022/06/03 03:48:18;;;;;;;21.60;10.80;;;22.80;92.60;;;;;;5131417;27;20066;-71
2022/06/03 03:51:32;;;;;;;25.98;10.52;;;22.80;92.80;;;;;;5131944;27;20042;-71
2022/06/03 03:54:51;;;;;;;18.83;10.27;;;22.80;92.70;;;;;;5131193;27;20093;-71
2022/06/03 03:58:25;;;;;;;23.48;10.15;;;22.90;92.40;;;;;;5132101;27;20050;-71
2022/06/03 04:02:06;;;;;;;17.25;9.40;;;23.10;92.10;;;;;;5132192;27;20046;-71
2022/06/03 04:06:01;;;;;;;25.03;9.87;;;23.20;91.90;;;;;;5131848;27;20058;-71
2022/06/03 04:09:40;;;;;;;20.20;9.02;;;23.50;91.40;;;;;;5106085;27;20046;-71
2022/06/03 04:13:02;;;;;;;24.65;9.05;;;23.60;90.90;;;;;;5119286;28;20035;-71
2022/06/03 04:16:45;;;;;;;24.98;9.82;;;23.70;91.00;;;;;;5132107;28;20046;-72
2022/06/03 04:20:04;;;;;;;17.95;10.02;;;23.70;91.10;;;;;;5131142;28;20042;-71
2022/06/03 04:23:45;;;;;;;149.15;20.35;;;23.70;91.10;;;;;;5131838;28;20054;-71
2022/06/03 04:27:31;;;;;;;27.77;9.98;;;23.70;91.10;;;;;;5131020;28;20489;-71
2022/06/03 04:31:03;;;;;;;35.25;10.55;;;23.90;91.10;;;;;;5118309;28;20046;-71
2022/06/03 04:34:32;;;;;;;47.15;11.18;;;24.00;90.80;;;;;;5131819;28;20355;-71
2022/06/03 04:38:02;;;;;;;28.30;11.05;;;24.00;90.90;;;;;;5131836;27;20047;-72
2022/06/03 04:41:46;;;;;;;32.83;14.88;;;24.10;91.00;;;;;;5135653;27;20042;-71
2022/06/03 04:45:12;;;;;;;33.25;13.75;;;24.50;90.40;;;;;;5134985;27;20120;-71
2022/06/03 04:48:40;;;;;;;37.83;13.77;;;24.80;88.80;;;;;;5135663;27;20054;-71
2022/06/03 04:52:06;;;;;;;27.67;13.15;;;25.10;88.00;;;;;;5135418;27;20050;-71
2022/06/03 04:55:47;;;;;;;25.90;14.15;;;25.40;87.10;;;;;;5135154;27;20065;-71
2022/06/03 04:59:22;;;;;;;34.20;14.30;;;25.60;86.40;;;;;;5124183;27;20405;-71
2022/06/03 05:02:42;;;;;;;42.42;13.90;;;25.70;86.40;;;;;;5135347;27;20047;-71
2022/06/03 05:06:23;;;;;;;28.30;12.57;;;25.90;85.60;;;;;;5135473;27;20054;-71
2022/06/03 05:10:12;;;;;;;30.45;12.05;;;26.10;84.50;;;;;;5134583;27;20043;-71
2022/06/03 05:13:42;;;;;;;22.40;13.95;;;26.40;84.50;;;;;;5135087;27;20112;-71
2022/06/03 05:17:20;;;;;;;41.08;13.68;;;26.60;84.40;;;;;;5134165;27;20050;-72
2022/06/03 05:20:33;;;;;;;39.80;14.02;;;26.80;84.50;;;;;;5124851;27;20505;-72
2022/06/03 05:23:55;;;;;;;44.65;13.60;;;26.90;84.00;;;;;;5134868;27;20058;-71
2022/06/03 05:27:37;;;;;;;58.10;12.60;;;27.00;84.40;;;;;;5134092;27;20117;-72
2022/06/03 05:30:59;;;;;;;29.95;10.90;;;27.20;83.80;;;;;;5134827;27;20042;-71
2022/06/03 05:34:34;;;;;;;27.35;9.23;;;27.50;82.30;;;;;;5134669;27;20050;-77
2022/06/03 05:38:06;;;;;;;29.25;9.10;;;27.50;79.20;;;;;;5134637;27;20046;-78
2022/06/03 05:45:32;;;;;;;35.60;8.70;;;27.80;78.10;;;;;;5112274;27;20054;-79
2022/06/03 05:49:03;;;;;;;26.17;7.70;;;27.90;77.30;;;;;;5134399;27;20054;-76
2022/06/03 05:52:40;;;;;;;39.88;8.30;;;27.90;77.40;;;;;;5133949;27;20100;-78
2022/06/03 05:56:14;;;;;;;28.40;7.10;;;28.10;77.20;;;;;;5134215;27;20034;-78
2022/06/03 05:59:37;;;;;;;22.38;7.60;;;28.20;76.30;;;;;;5134169;27;20045;-78
2022/06/03 06:02:54;;;;;;;22.23;7.80;;;28.30;76.20;;;;;;5133794;27;20049;-78
2022/06/03 06:06:14;;;;;;;27.40;7.88;;;28.20;76.60;;;;;;5133746;27;20073;-79
2022/06/03 06:09:36;;;;;;;27.92;7.60;;;28.20;76.40;;;;;;5133662;27;20042;-76
2022/06/03 06:12:42;;;;;;;34.92;8.93;;;28.20;76.40;;;;;;5133935;27;20046;-76
2022/06/03 06:15:49;;;;;;;33.17;8.48;;;28.40;76.50;;;;;;5134169;27;20497;-78
2022/06/03 06:19:29;;;;;;;30.58;7.85;;;28.50;75.80;;;;;;5133706;27;20649;-78
2022/06/03 06:22:40;;;;;;;26.63;7.78;;;28.70;75.60;;;;;;5133662;27;20426;-72
2022/06/03 06:26:11;;;;;;;25.92;7.57;;;28.80;74.80;;;;;;5133457;27;20657;-76
2022/06/03 06:29:33;;;;;;;32.30;9.55;;;28.90;74.70;;;;;;5132249;27;20039;-75
2022/06/03 06:32:59;;;;;;;27.65;8.25;;;29.10;74.20;;;;;;5133534;27;20054;-73
2022/06/03 06:36:41;;;;;;;31.15;8.15;;;29.30;74.30;;;;;;5133299;27;20390;-70
2022/06/03 06:39:51;;;;;;;34.13;8.20;;;29.70;73.70;;;;;;5133263;27;20038;-72
2022/06/03 06:43:08;;;;;;;27.52;7.68;;;30.00;73.10;;;;;;5132362;27;20045;-72
2022/06/03 06:46:37;;;;;;;26.35;6.95;;;30.00;72.50;;;;;;5133272;27;20050;-74
2022/06/03 06:50:09;;;;;;;28.38;7.18;;;30.00;72.40;;;;;;5133126;27;20494;-72
2022/06/03 06:53:16;;;;;;;;;;;30.10;70.70;;;;;;5133579;27;20520;-76
2022/06/03 06:56:37;;;;;;;30.35;7.50;;;30.20;70.70;;;;;;5132551;27;20557;-71
2022/06/03 07:00:19;;;;;;;32.85;7.25;;;30.40;70.50;;;;;;5132697;27;20050;-76
2022/06/03 07:03:51;;;;;;;32.55;7.60;;;30.50;69.70;;;;;;5135611;27;20038;-73
2022/06/03 07:07:19;;;;;;;33.13;8.20;;;30.60;68.80;;;;;;5132689;27;20073;-73
2022/06/03 07:10:28;;;;;;;34.78;7.50;;;30.70;68.20;;;;;;5131055;27;20042;-74
2022/06/03 07:13:56;;;;;;;23.67;6.95;;;30.70;68.60;;;;;;5131108;27;20068;-77
2022/06/03 07:20:56;;;;;;;28.58;7.25;;;31.30;66.10;;;;;;5132416;27;20046;-71
2022/06/03 07:24:09;;;;;;;31.65;7.32;;;31.40;67.80;;;;;;5132346;27;20042;-73
2022/06/03 07:27:27;;;;;;;26.27;7.38;;;31.50;67.30;;;;;;5132455;27;20042;-76
2022/06/03 07:30:44;;;;;;;28.65;6.80;;;31.90;66.90;;;;;;5119713;27;20382;-73
2022/06/03 07:34:25;;;;;;;20.17;6.60;;;32.10;66.20;;;;;;5132262;27;20046;-73
2022/06/03 07:37:38;;;;;;;25.70;6.40;;;32.30;65.50;;;;;;5133096;27;20386;-73
2022/06/03 07:40:51;;;;;;;24.55;6.10;;;32.50;65.20;;;;;;5132346;27;20046;-73
2022/06/03 07:44:15;;;;;;;20.65;5.75;;;32.60;63.50;;;;;;5131643;27;20062;-71
2022/06/03 07:47:19;;;;;;;19.55;6.47;;;32.70;63.40;;;;;;5131939;27;20042;-72
2022/06/03 07:50:26;;;;;;;27.40;6.82;;;32.80;62.90;;;;;;5131762;27;20046;-71
2022/06/03 07:53:50;;;;;;;26.33;6.97;;;32.80;63.10;;;;;;5131400;27;20038;-71
2022/06/03 07:57:17;;;;;;;30.27;7.07;;;32.80;63.40;;;;;;5131921;27;20050;-73
2022/06/03 08:00:23;;;;;;;17.83;6.65;;;32.80;62.90;;;;;;5131360;27;20116;-73
2022/06/03 08:03:36;;;;;;;19.10;6.07;;;32.80;62.30;;;;;;5131480;27;20043;-70
2022/06/03 08:13:39;;;;;;;25.55;6.15;;;33.00;61.10;;;;;;5132546;27;20049;-74
2022/06/03 08:16:44;;;;;;;25.65;5.47;;;33.20;61.00;;;;;;5123209;27;20042;-76
2022/06/03 08:19:48;;;;;;;23.08;6.28;;;33.40;59.60;;;;;;5134880;27;20058;-69
2022/06/03 08:22:53;;;;;;;21.02;6.07;;;33.50;60.50;;;;;;5135575;27;20062;-74
2022/06/03 08:26:01;;;;;;;27.48;6.10;;;33.70;60.90;;;;;;5123091;27;20065;-76
2022/06/03 08:29:21;;;;;;;15.52;5.85;;;33.80;60.40;;;;;;5135092;27;20038;-71
2022/06/03 08:32:33;;;;;;;18.92;5.22;;;34.00;59.80;;;;;;5134821;27;20497;-72
2022/06/03 08:35:42;;;;;;;25.85;5.55;;;33.90;59.40;;;;;;5135890;27;20038;-71
2022/06/03 08:39:15;;;;;;;18.60;5.88;;;34.00;58.70;;;;;;5134747;27;20062;-68
2022/06/03 08:42:34;;;;;;;14.45;5.32;;;34.20;59.60;;;;;;5135309;27;20391;-69
2022/06/03 08:45:44;;;;;;;10.07;4.43;;;34.60;59.10;;;;;;5135189;27;20050;-72
2022/06/03 08:48:50;;;;;;;22.85;4.78;;;34.80;56.40;;;;;;5135661;27;20042;-74
2022/06/03 08:52:05;;;;;;;27.85;5.53;;;34.90;56.50;;;;;;5135479;27;20050;-73
2022/06/03 08:55:27;;;;;;;10.95;4.75;;;34.90;56.60;;;;;;5135564;27;20050;-78
2022/06/03 08:58:58;;;;;;;23.45;5.43;;;35.00;57.50;;;;;;5135562;27;20038;-78
2022/06/03 09:02:20;;;;;;;29.63;6.07;;;35.10;57.60;;;;;;5134973;27;20042;-73
2022/06/03 09:05:32;;;;;;;14.48;4.88;;;35.10;57.50;;;;;;5135044;27;20403;-83
2022/06/03 09:08:54;;;;;;;13.55;4.85;;;35.20;57.40;;;;;;5135269;27;20394;-72
2022/06/03 09:12:23;;;;;;;8.52;3.97;;;35.10;55.90;;;;;;5133808;27;20054;-74
2022/06/03 09:15:34;;;;;;;10.27;4.20;;;35.10;56.80;;;;;;5134780;27;20092;-72
2022/06/03 09:18:50;;;;;;;13.88;4.80;;;35.20;56.50;;;;;;5134594;27;20042;-73
2022/06/03 09:21:57;;;;;;;13.75;3.90;;;35.30;55.30;;;;;;5134997;27;20667;-72
2022/06/03 09:25:05;;;;;;;7.30;3.60;;;35.10;53.60;;;;;;5133709;27;20050;-71
2022/06/03 09:28:15;;;;;;;15.20;3.90;;;35.20;55.30;;;;;;5134723;27;20038;-72
2022/06/03 09:31:20;;;;;;;16.90;3.83;;;35.30;55.00;;;;;;5133958;27;20505;-72
2022/06/03 09:34:38;;;;;;;8.82;3.40;;;35.30;51.70;;;;;;5133259;27;20054;-75
2022/06/03 09:37:47;;;;;;;18.42;4.57;;;35.30;52.80;;;;;;5134779;27;20046;-73
2022/06/03 09:40:56;;;;;;;14.52;4.60;;;35.30;52.10;;;;;;5133354;27;20046;-72
2022/06/03 09:44:03;;;;;;;8.68;3.53;;;35.40;52.80;;;;;;5133890;27;20054;-72
2022/06/03 09:47:11;;;;;;;11.13;3.20;;;35.40;52.80;;;;;;5134470;27;20053;-73
2022/06/03 09:50:18;;;;;;;22.25;4.32;;;35.50;52.60;;;;;;5134092;27;20054;-72
2022/06/03 09:53:30;;;;;;;11.27;3.80;;;35.60;51.30;;;;;;5131964;27;20062;-71
2022/06/03 09:56:37;;;;;;;17.65;3.60;;;35.60;50.70;;;;;;5133906;27;20524;-74
2022/06/03 09:59:57;;;;;;;15.77;3.50;;;35.60;50.80;;;;;;5134004;27;20129;-71
2022/06/03 10:03:03;;;;;;;10.15;3.83;;;35.70;49.30;;;;;;5121417;27;20046;-72
2022/06/03 10:06:42;;;;;;;9.13;3.30;;;35.60;50.20;;;;;;5133519;27;20069;-72
2022/06/03 10:12:59;;;;;;;11.40;3.90;;;35.70;50.30;;;;;;5133826;27;20050;-72
2022/06/03 10:16:05;;;;;;;8.73;3.20;;;35.60;50.70;;;;;;5133391;27;20490;-72
2022/06/03 10:19:09;;;;;;;17.45;4.15;;;35.70;50.90;;;;;;5132682;27;20399;-72
2022/06/03 10:22:13;;;;;;;10.40;3.92;;;35.70;50.80;;;;;;5133939;27;20049;-73
2022/06/03 10:25:17;;;;;;;15.05;4.45;;;35.70;50.00;;;;;;5133685;27;20054;-73
2022/06/03 10:28:21;;;;;;;9.85;3.45;;;35.60;50.50;;;;;;5133905;27;20378;-72
2022/06/03 10:31:34;;;;;;;16.60;5.68;;;35.70;50.90;;;;;;5133500;27;20050;-72
2022/06/03 10:34:40;;;;;;;6.88;3.10;;;35.70;51.20;;;;;;5133440;27;20038;-74
2022/06/03 10:37:56;;;;;;;13.93;4.60;;;35.60;50.30;;;;;;5120493;27;20501;-75
2022/06/03 10:41:10;;;;;;;7.13;3.10;;;35.60;50.70;;;;;;5133038;27;20101;-72
2022/06/03 10:44:23;;;;;;;14.73;4.32;;;35.60;49.80;;;;;;5133220;27;20054;-72
2022/06/03 10:47:39;;;;;;;14.02;3.75;;;35.60;50.60;;;;;;5133304;27;20042;-72
2022/06/03 10:50:43;;;;;;;10.55;3.53;;;35.50;50.50;;;;;;5132701;27;20046;-73
2022/06/03 11:04:23;;;;;;;8.70;3.80;;;35.30;50.80;;;;;;5132765;27;20050;-75
2022/06/03 11:07:30;;;;;;;9.43;4.05;;;35.30;50.10;;;;;;5131869;27;20052;-75
2022/06/03 11:10:46;;;;;;;14.65;4.30;;;35.20;50.60;;;;;;5131158;27;20108;-75
2022/06/03 11:13:50;;;;;;;9.75;3.70;;;35.00;51.10;;;;;;5131792;27;20596;-75
2022/06/03 11:16:59;;;;;;;20.38;6.88;;;35.00;51.40;;;;;;5131240;27;20050;-76
2022/06/03 11:20:34;;;;;;;15.50;5.25;;;35.00;53.90;;;;;;5131577;27;20066;-76
2022/06/03 11:23:38;;;;;;;16.15;5.93;;;35.00;55.80;;;;;;5132563;27;20065;-76
2022/06/03 11:26:45;;;;;;;16.05;5.35;;;35.10;56.00;;;;;;5132557;27;20050;-76
2022/06/03 11:29:52;;;;;;;14.00;5.55;;;35.20;55.90;;;;;;5131670;27;20402;-75
2022/06/03 11:33:09;;;;;;;8.05;4.78;;;35.20;56.30;;;;;;5132484;27;20061;-76
2022/06/03 11:36:37;;;;;;;13.48;4.97;;;35.20;56.00;;;;;;5132426;27;20414;-75
2022/06/03 11:39:40;;;;;;;10.55;4.22;;;35.30;56.50;;;;;;5131785;27;20046;-77
2022/06/03 11:42:51;;;;;;;10.20;4.70;;;35.30;55.80;;;;;;5132080;27;20046;-79
2022/06/03 11:46:02;;;;;;;15.57;5.07;;;35.30;55.60;;;;;;5131539;27;20058;-77
2022/06/03 11:49:07;;;;;;;20.67;6.10;;;35.30;55.80;;;;;;5131261;27;20042;-77
2022/06/03 11:52:12;;;;;;;17.70;4.90;;;35.30;55.80;;;;;;5132363;27;20518;-75
2022/06/03 11:55:22;;;;;;;13.18;4.60;;;35.30;55.10;;;;;;5131442;27;20391;-77
2022/06/03 11:58:26;;;;;;;;;;;35.30;55.20;;;;;;5132521;27;20500;-75
2022/06/03 12:01:30;;;;;;;10.93;4.35;;;35.30;55.30;;;;;;5132175;27;19914;-75
2022/06/03 12:04:50;;;;;;;8.98;4.97;;;35.20;54.50;;;;;;5131988;27;20042;-75
2022/06/03 12:08:01;;;;;;;;;;;35.20;54.20;;;;;;5132609;28;20058;-75
2022/06/03 12:13:14;;;;;;;;;;;35.20;55.10;;;;;;5132574;28;19918;-75
2022/06/03 12:14:38;;;;;;;8.52;4.60;;;35.10;54.50;;;;;;5131720;28;19918;-73
2022/06/03 12:17:42;;;;;;;20.15;5.50;;;35.10;54.50;;;;;;5130601;28;20062;-71
2022/06/03 12:20:53;;;;;;;10.65;4.50;;;35.10;54.90;;;;;;5130940;28;20042;-71
2022/06/03 12:24:38;;;;;;;12.27;4.55;;;35.10;54.30;;;;;;5131107;28;20034;-71
2022/06/03 12:27:42;;;;;;;11.45;4.60;;;35.00;55.20;;;;;;5131703;28;20058;-71
2022/06/03 12:30:51;;;;;;;12.88;4.72;;;35.00;55.60;;;;;;5131970;28;20050;-71
2022/06/03 12:34:01;;;;;;;11.70;4.88;;;35.00;55.20;;;;;;5131986;28;20042;-71
2022/06/03 12:37:25;;;;;;;;;;;34.90;55.60;;;;;;5132320;28;20037;-72
2022/06/03 12:40:35;;;;;;;15.35;4.75;;;34.80;55.40;;;;;;5131910;28;19915;-71
2022/06/03 12:43:45;;;;;;;18.00;6.00;;;34.90;55.50;;;;;;5118596;28;20058;-71
2022/06/03 12:46:49;;;;;;;21.42;6.88;;;34.80;55.90;;;;;;5117925;28;20054;-71
2022/06/03 12:50:18;;;;;;;10.98;4.72;;;34.90;55.50;;;;;;5131634;28;20038;-72
2022/06/03 12:53:33;;;;;;;15.25;6.43;;;34.80;55.40;;;;;;5134847;27;20529;-71
2022/06/03 12:56:48;;;;;;;14.65;4.75;;;34.80;55.40;;;;;;5131202;28;20038;-71
2022/06/03 13:00:06;;;;;;;24.35;7.22;;;34.80;55.40;;;;;;5133521;27;20050;-71
2022/06/03 13:03:16;;;;;;;12.13;4.70;;;34.70;55.80;;;;;;5135441;27;20050;-71
2022/06/03 13:06:26;;;;;;;15.60;5.33;;;34.70;56.10;;;;;;5135656;27;20065;-71
2022/06/03 13:09:50;;;;;;;11.43;4.65;;;34.70;56.60;;;;;;5135234;27;20050;-72
2022/06/03 13:13:16;;;;;;;14.98;6.20;;;34.70;57.10;;;;;;5135036;27;20034;-71
2022/06/03 13:16:27;;;;;;;24.27;5.13;;;34.70;57.30;;;;;;5134056;27;20042;-71
2022/06/03 13:19:32;;;;;;;10.10;4.50;;;34.70;58.00;;;;;;5135267;27;20054;-71
2022/06/03 13:22:47;;;;;;;8.88;4.35;;;34.70;57.60;;;;;;5134117;27;20058;-72
2022/06/03 13:25:54;;;;;;;9.48;4.75;;;34.70;57.10;;;;;;5133774;27;20050;-72
2022/06/03 13:29:02;;;;;;;11.13;4.25;;;34.60;57.40;;;;;;5134870;27;20042;-71
2022/06/03 13:32:15;;;;;;;11.20;5.32;;;34.50;56.70;;;;;;5134037;27;20065;-71
2022/06/03 13:35:31;;;;;;;20.27;4.95;;;34.50;56.90;;;;;;5134866;27;20042;-71
2022/06/03 13:38:44;;;;;;;11.13;4.65;;;34.40;56.80;;;;;;5134622;27;20042;-72
2022/06/03 13:45:19;;;;;;;15.60;4.45;;;34.30;56.80;;;;;;5134396;27;20046;-72
2022/06/03 13:48:23;;;;;;;20.52;4.82;;;34.30;57.10;;;;;;5133659;27;20634;-72
2022/06/03 13:51:38;;;;;;;18.10;5.25;;;34.20;57.40;;;;;;5134388;27;20039;-72
2022/06/03 13:54:49;;;;;;;21.58;5.32;;;34.20;57.60;;;;;;5134413;27;20387;-72
2022/06/03 13:58:00;;;;;;;11.73;4.10;;;34.10;58.00;;;;;;5134020;27;20378;-71
2022/06/03 14:01:22;;;;;;;;;;;34.10;57.50;;;;;;5134352;27;20046;-70
2022/06/03 14:04:32;;;;;;;12.48;4.50;;;34.10;57.30;;;;;;5134136;27;20374;-71
2022/06/03 14:07:40;;;;;;;8.02;3.80;;;34.10;57.30;;;;;;5133971;27;20448;-71
2022/06/03 14:10:59;;;;;;;13.25;3.97;;;34.10;57.40;;;;;;5132444;27;20047;-71
2022/06/03 14:14:13;;;;;;;11.95;4.68;;;34.00;57.80;;;;;;5133596;27;20046;-71
2022/06/03 14:17:41;;;;;;;14.05;4.32;;;34.00;57.00;;;;;;5133917;27;20066;-71
2022/06/03 14:20:52;;;;;;;12.77;4.50;;;33.90;57.10;;;;;;5133192;27;20073;-72
2022/06/03 14:23:59;;;;;;;19.42;4.95;;;33.90;57.10;;;;;;5133712;27;20042;-72
2022/06/03 14:27:26;;;;;;;26.10;5.55;;;33.70;58.10;;;;;;5132660;27;20054;-71
2022/06/03 14:30:55;;;;;;;21.38;6.20;;;33.60;58.80;;;;;;5139195;27;20498;-70
2022/06/03 14:34:22;;;;;;;11.48;4.50;;;33.60;58.50;;;;;;5133420;27;20042;-71
2022/06/03 14:37:44;;;;;;;9.98;4.45;;;33.50;58.60;;;;;;5133105;27;20054;-70
2022/06/03 14:40:50;;;;;;;15.35;5.38;;;33.50;59.40;;;;;;5132159;27;20521;-71
2022/06/03 14:43:55;;;;;;;15.60;5.03;;;33.50;59.60;;;;;;5132810;27;20050;-71
2022/06/03 14:47:12;;;;;;;19.10;4.40;;;33.50;58.50;;;;;;5131630;27;20051;-74
2022/06/03 14:50:30;;;;;;;9.27;4.28;;;33.50;58.00;;;;;;5130119;27;20046;-73
2022/06/03 14:53:39;;;;;;;14.45;4.72;;;33.40;58.00;;;;;;5130290;27;20038;-73
2022/06/03 14:56:47;;;;;;;12.63;4.65;;;33.40;57.80;;;;;;5130905;27;20062;-75
2022/06/03 15:00:04;;;;;;;6.55;4.35;;;33.40;58.90;;;;;;5130877;27;20046;-76
2022/06/03 15:03:29;;;;;;;15.77;5.00;;;33.40;59.10;;;;;;5131630;27;20046;-71
2022/06/03 15:06:46;;;;;;;11.25;4.75;;;33.40;58.80;;;;;;5131817;27;20054;-71
2022/06/03 15:09:54;;;;;;;9.50;4.28;;;33.40;58.80;;;;;;5131350;27;20046;-71
2022/06/03 15:13:00;;;;;;;13.27;4.85;;;33.30;59.00;;;;;;5132708;27;20050;-72
2022/06/03 15:16:08;;;;;;;8.68;4.30;;;33.30;58.50;;;;;;5132501;27;20058;-72
2022/06/03 15:19:12;;;;;;;13.27;4.10;;;33.30;59.10;;;;;;5132579;27;20050;-72
2022/06/03 15:22:26;;;;;;;9.73;3.67;;;33.20;58.50;;;;;;5132361;27;20062;-72
2022/06/03 15:25:47;;;;;;;7.05;3.75;;;33.20;57.10;;;;;;5132223;27;20054;-73
2022/06/03 15:28:56;;;;;;;16.83;4.93;;;33.20;58.10;;;;;;5131846;27;20050;-72
2022/06/03 15:32:01;;;;;;;8.48;4.00;;;33.10;58.30;;;;;;5131789;27;20042;-74
2022/06/03 15:35:07;;;;;;;18.95;4.75;;;33.10;58.10;;;;;;5131553;27;20046;-74
2022/06/03 15:38:14;;;;;;;8.95;3.80;;;33.10;57.70;;;;;;5132252;27;20050;-72
2022/06/03 15:41:21;;;;;;;10.85;4.22;;;33.00;58.20;;;;;;5132005;27;20054;-73
2022/06/03 15:44:34;;;;;;;15.80;7.32;;;33.00;57.80;;;;;;5130925;27;20540;-75
2022/06/03 15:47:38;;;;;;;15.82;5.75;;;33.00;57.60;;;;;;5131109;27;20054;-74
2022/06/03 15:51:05;;;;;;;12.70;4.60;;;32.90;58.00;;;;;;5131132;27;20064;-73
2022/06/03 15:54:24;;;;;;;8.10;3.83;;;32.90;58.20;;;;;;5131673;27;20046;-72
2022/06/03 15:57:52;;;;;;;11.52;4.15;;;32.80;58.60;;;;;;5131970;27;20046;-72
2022/06/03 16:01:25;;;;;;;8.95;3.50;;;32.80;58.80;;;;;;5131894;27;20038;-72
2022/06/03 16:04:41;;;;;;;9.35;4.18;;;32.80;59.10;;;;;;5130921;27;20157;-73
2022/06/03 16:07:53;;;;;;;14.20;5.18;;;32.80;59.50;;;;;;5131574;27;20046;-72
2022/06/03 16:11:09;;;;;;;17.02;4.22;;;32.80;59.70;;;;;;5131523;28;20038;-74
2022/06/03 16:14:56;;;;;;;12.68;4.25;;;32.80;59.80;;;;;;5131622;28;20057;-73
2022/06/03 16:18:21;;;;;;;6.78;3.30;;;32.80;60.10;;;;;;5131281;28;20038;-73
2022/06/03 16:21:28;;;;;;;9.45;4.13;;;32.70;60.20;;;;;;5131499;28;20387;-73
2022/06/03 16:24:58;;;;;;;8.27;4.20;;;32.80;60.60;;;;;;5131436;28;20038;-74
2022/06/03 16:28:04;;;;;;;11.95;4.45;;;32.70;60.70;;;;;;5131410;28;20105;-73
2022/06/03 16:31:21;;;;;;;9.90;5.57;;;32.70;61.20;;;;;;5131555;28;20061;-73
2022/06/03 16:34:38;;;;;;;9.80;4.78;;;32.60;61.10;;;;;;5132789;27;20046;-73
2022/06/03 16:38:06;;;;;;;9.00;4.07;;;32.60;61.20;;;;;;5134962;27;20403;-73
2022/06/03 16:41:42;;;;;;;15.68;4.38;;;32.60;61.50;;;;;;5135479;27;20101;-74
2022/06/03 16:44:56;;;;;;;15.98;4.47;;;32.60;61.70;;;;;;5136067;27;20054;-73
2022/06/03 16:48:15;;;;;;;18.67;4.70;;;32.50;62.00;;;;;;5135400;27;20061;-73
2022/06/03 16:51:30;;;;;;;17.65;4.95;;;32.50;62.40;;;;;;5135421;27;20064;-73
2022/06/03 16:54:43;;;;;;;14.48;5.43;;;32.50;63.40;;;;;;5135350;27;20042;-74
2022/06/03 16:57:56;;;;;;;16.88;5.30;;;32.40;63.60;;;;;;5134618;27;20057;-75
2022/06/03 17:01:05;;;;;;;20.77;5.57;;;32.30;64.60;;;;;;5134141;27;20050;-75
2022/06/03 17:04:09;;;;;;;14.70;5.80;;;32.30;65.00;;;;;;5135084;27;20046;-74
2022/06/03 17:07:34;;;;;;;18.20;5.75;;;32.30;65.30;;;;;;5134854;27;20402;-73
2022/06/03 17:10:40;;;;;;;18.10;5.55;;;32.20;66.00;;;;;;5134999;27;20399;-73
2022/06/03 17:13:47;;;;;;;9.30;4.50;;;32.10;65.50;;;;;;5134547;27;20527;-74
2022/06/03 17:17:02;;;;;;;13.57;4.78;;;32.10;65.80;;;;;;5134628;27;20498;-76
2022/06/03 17:20:07;;;;;;;10.38;4.75;;;32.00;65.60;;;;;;5134208;27;20057;-75
2022/06/03 17:23:29;;;;;;;14.93;5.00;;;32.00;65.70;;;;;;5134379;27;20066;-74
2022/06/03 17:27:10;;;;;;;16.55;4.90;;;32.00;65.60;;;;;;5134927;27;20070;-74
2022/06/03 17:30:22;;;;;;;14.02;5.45;;;31.90;65.40;;;;;;5134399;27;20497;-73
2022/06/03 17:33:47;;;;;;;15.38;5.50;;;31.80;65.20;;;;;;5134701;27;20046;-74
2022/06/03 17:36:51;;;;;;;11.52;4.70;;;31.70;65.40;;;;;;5134634;27;20386;-74
2022/06/03 17:40:09;;;;;;;16.80;5.70;;;31.60;65.50;;;;;;5134526;27;20065;-74